createdAt,value
2018-09-04T00:00:32.880Z,19.67
2018-09-04T00:03:01.553Z,24.40
2018-09-04T00:05:30.200Z,25.80
2018-09-04T00:07:58.802Z,24.63
2018-09-04T00:10:27.895Z,25.70
2018-09-04T00:12:56.505Z,26.33
2018-09-04T00:15:25.219Z,25.37
2018-09-04T00:17:53.811Z,28.47
2018-09-04T00:20:22.626Z,28.47
2018-09-04T00:22:51.243Z,28.63
2018-09-04T00:25:19.971Z,30.50
2018-09-04T00:27:49.064Z,33.73
2018-09-04T00:30:17.694Z,38.87
2018-09-04T00:32:46.348Z,40.17
2018-09-04T00:35:15.323Z,39.50
2018-09-04T00:37:43.988Z,39.87
2018-09-04T00:40:12.678Z,44.03
2018-09-04T00:42:41.316Z,43.53
2018-09-04T00:45:10.205Z,41.33
2018-09-04T00:47:38.856Z,40.70
2018-09-04T00:50:07.812Z,41.77
2018-09-04T00:52:36.424Z,40.90
2018-09-04T00:55:05.551Z,42.63
2018-09-04T00:57:34.284Z,42.93
2018-09-04T01:00:03.278Z,47.37
2018-09-04T01:02:31.912Z,42.87
2018-09-04T01:05:00.562Z,40.83
2018-09-04T01:07:29.226Z,45.20
2018-09-04T01:09:57.901Z,50.00
2018-09-04T01:12:26.504Z,46.57
2018-09-04T01:14:57.281Z,54.63
2018-09-04T01:17:26.211Z,54.40
2018-09-04T01:19:55.253Z,54.97
2018-09-04T01:22:24.011Z,52.00
2018-09-04T01:24:52.666Z,52.00
2018-09-04T01:27:21.312Z,51.17
2018-09-04T01:29:49.891Z,51.63
2018-09-04T01:32:18.560Z,53.53
2018-09-04T01:34:47.149Z,54.77
2018-09-04T01:37:16.431Z,54.00
2018-09-04T01:39:45.095Z,56.10
2018-09-04T01:42:13.734Z,56.80
2018-09-04T01:44:42.309Z,56.57
2018-09-04T01:49:37.145Z,54.17
2018-09-04T01:52:05.836Z,52.93
2018-09-04T01:54:34.431Z,53.63
2018-09-04T01:57:03.764Z,53.20
2018-09-04T01:59:32.506Z,55.73
2018-09-04T02:02:01.136Z,61.53
2018-09-04T02:04:31.945Z,64.63
2018-09-04T02:07:00.658Z,68.33
2018-09-04T02:09:29.397Z,64.93
2018-09-04T02:11:57.994Z,65.77
2018-09-04T02:14:26.653Z,69.13
2018-09-04T02:16:55.246Z,69.00
2018-09-04T02:19:23.867Z,72.87
2018-09-04T02:21:52.522Z,72.93
2018-09-04T02:24:21.142Z,73.70
2018-09-04T02:26:49.807Z,75.00
2018-09-04T02:29:18.844Z,77.53
2018-09-04T02:31:47.771Z,75.37
2018-09-04T02:34:17.661Z,75.67
2018-09-04T02:36:46.270Z,76.30
2018-09-04T02:39:14.955Z,78.80
2018-09-04T02:41:43.587Z,76.27
2018-09-04T02:44:12.248Z,79.83
2018-09-04T02:46:40.835Z,81.33
2018-09-04T02:49:09.519Z,77.17
2018-09-04T02:51:38.183Z,79.80
2018-09-04T02:54:06.914Z,75.57
2018-09-04T02:56:35.538Z,76.80
2018-09-04T02:59:04.266Z,77.80
2018-09-04T03:01:33.178Z,72.80
2018-09-04T03:04:01.876Z,71.00
2018-09-04T03:06:30.548Z,72.93
2018-09-04T03:08:59.169Z,72.83
2018-09-04T03:11:27.851Z,73.90
2018-09-04T03:13:56.593Z,75.17
2018-09-04T03:16:25.180Z,76.30
2018-09-04T03:18:53.888Z,76.13
2018-09-04T03:21:23.955Z,72.63
2018-09-04T03:23:52.683Z,75.00
2018-09-04T03:26:21.293Z,72.83
2018-09-04T03:28:49.932Z,72.97
2018-09-04T03:31:20.757Z,75.13
2018-09-04T03:33:49.476Z,71.43
2018-09-04T03:36:18.108Z,69.33
2018-09-04T03:38:46.754Z,68.20
2018-09-04T03:41:15.386Z,65.00
2018-09-04T03:43:44.042Z,64.97
2018-09-04T03:46:12.675Z,67.73
2018-09-04T03:48:41.492Z,62.97
2018-09-04T03:51:10.210Z,67.03
2018-09-04T03:53:38.831Z,63.10
2018-09-04T03:56:07.885Z,65.77
2018-09-04T03:58:36.534Z,69.00
2018-09-04T04:01:05.168Z,65.83
2018-09-04T04:03:33.888Z,64.50
2018-09-04T04:06:02.533Z,63.97
2018-09-04T04:08:31.148Z,61.50
2018-09-04T04:10:59.789Z,60.47
2018-09-04T04:13:28.403Z,63.23
2018-09-04T04:15:57.023Z,63.43
2018-09-04T04:18:25.642Z,61.37
2018-09-04T04:20:59.877Z,61.70
2018-09-04T04:23:29.495Z,61.17
2018-09-04T04:25:59.904Z,62.53
2018-09-04T04:28:28.528Z,61.57
2018-09-04T04:30:57.205Z,60.70
2018-09-04T04:33:25.826Z,59.20
2018-09-04T04:35:54.488Z,60.33
2018-09-04T04:38:23.674Z,60.03
2018-09-04T04:40:52.262Z,57.83
2018-09-04T04:43:20.852Z,57.93
2018-09-04T04:45:49.490Z,57.97
2018-09-04T04:48:18.207Z,56.70
2018-09-04T04:50:46.807Z,59.20
2018-09-04T04:53:15.430Z,59.83
2018-09-04T04:55:44.053Z,59.87
2018-09-04T04:58:12.668Z,58.07
2018-09-04T05:00:41.343Z,59.30
2018-09-04T05:03:10.098Z,61.40
2018-09-04T05:05:38.744Z,63.37
2018-09-04T05:08:07.345Z,59.53
2018-09-04T05:10:36.068Z,58.47
2018-09-04T05:13:05.071Z,57.03
2018-09-04T05:15:33.743Z,56.77
2018-09-04T05:18:02.388Z,54.10
2018-09-04T05:20:31.126Z,55.73
2018-09-04T05:22:59.785Z,56.73
2018-09-04T05:25:28.520Z,55.60
2018-09-04T05:27:57.154Z,53.23
2018-09-04T05:30:25.937Z,52.53
2018-09-04T05:32:59.760Z,54.67
2018-09-04T05:35:32.344Z,53.20
2018-09-04T05:38:00.982Z,54.27
2018-09-04T05:40:29.606Z,53.63
2018-09-04T05:43:01.270Z,54.40
2018-09-04T05:45:31.212Z,52.70
2018-09-04T05:48:03.347Z,52.17
2018-09-04T05:50:32.092Z,54.03
2018-09-04T05:53:01.065Z,52.80
2018-09-04T05:55:29.679Z,51.37
2018-09-04T05:57:58.330Z,51.27
2018-09-04T06:00:29.907Z,50.43
2018-09-04T06:02:58.514Z,50.20
2018-09-04T06:05:27.175Z,50.97
2018-09-04T06:07:55.791Z,50.17
2018-09-04T06:10:24.507Z,48.50
2018-09-04T06:12:53.140Z,50.90
2018-09-04T06:15:21.827Z,50.83
2018-09-04T06:17:50.458Z,50.17
2018-09-04T06:20:19.090Z,49.00
2018-09-04T06:22:48.074Z,50.63
2018-09-04T06:25:16.683Z,49.33
2018-09-04T06:27:45.401Z,47.30
2018-09-04T06:30:14.373Z,46.83
2018-09-04T06:32:42.971Z,47.93
2018-09-04T06:35:11.704Z,46.17
2018-09-04T06:37:40.303Z,46.70
2018-09-04T06:40:09.173Z,43.07
2018-09-04T06:42:37.840Z,44.50
2018-09-04T06:45:06.873Z,45.53
2018-09-04T06:47:35.514Z,44.63
2018-09-04T06:50:04.237Z,43.37
2018-09-04T06:52:32.882Z,42.20
2018-09-04T06:55:02.171Z,43.50
2018-09-04T06:57:30.821Z,42.60
2018-09-04T06:59:59.465Z,43.10
2018-09-04T07:02:28.138Z,42.83
2018-09-04T07:04:56.786Z,43.17
2018-09-04T07:07:25.616Z,43.23
2018-09-04T07:09:54.274Z,45.17
2018-09-04T07:12:22.864Z,44.13
2018-09-04T07:14:51.840Z,43.87
2018-09-04T07:17:20.493Z,43.13
2018-09-04T07:19:49.126Z,44.67
2018-09-04T07:22:17.758Z,47.23
2018-09-04T07:24:46.407Z,46.50
2018-09-04T07:27:15.030Z,45.07
2018-09-04T07:29:43.678Z,45.93
2018-09-04T07:32:12.396Z,46.63
2018-09-04T07:34:41.027Z,47.13
2018-09-04T07:37:09.669Z,52.60
2018-09-04T07:39:38.386Z,48.43
2018-09-04T07:42:07.351Z,52.60
2018-09-04T07:44:35.982Z,50.73
2018-09-04T07:47:04.738Z,53.83
2018-09-04T07:49:33.357Z,48.90
2018-09-04T07:52:02.043Z,48.13
2018-09-04T07:54:30.675Z,52.80
2018-09-04T07:56:59.371Z,56.20
2018-09-04T07:59:27.999Z,55.33
2018-09-04T08:01:56.628Z,56.23
2018-09-04T08:04:25.344Z,58.13
2018-09-04T08:06:53.949Z,56.10
2018-09-04T08:09:22.788Z,59.57
2018-09-04T08:11:51.453Z,59.07
2018-09-04T08:14:20.180Z,56.87
2018-09-04T08:16:48.846Z,58.93
2018-09-04T08:19:17.500Z,57.80
2018-09-04T08:21:46.134Z,56.57
2018-09-04T08:24:14.833Z,57.70
2018-09-04T08:26:43.489Z,57.57
2018-09-04T08:29:12.108Z,58.60
2018-09-04T08:31:40.731Z,59.67
2018-09-04T08:34:10.047Z,60.43
2018-09-04T08:36:38.778Z,59.50
2018-09-04T08:39:08.758Z,59.70
2018-09-04T08:41:37.382Z,59.00
2018-09-04T08:44:06.438Z,58.10
2018-09-04T08:46:35.102Z,56.97
2018-09-04T08:49:03.808Z,57.07
2018-09-04T08:51:32.802Z,58.97
2018-09-04T08:54:01.531Z,56.27
2018-09-04T08:56:30.160Z,57.97
2018-09-04T08:58:58.808Z,57.73
2018-09-04T09:01:27.480Z,57.13
2018-09-04T09:03:56.304Z,56.70
2018-09-04T09:06:24.949Z,55.37
2018-09-04T09:08:53.592Z,57.57
2018-09-04T09:11:22.229Z,56.40
2018-09-04T09:13:50.885Z,58.33
2018-09-04T09:16:19.580Z,57.60
2018-09-04T09:18:48.248Z,58.40
2018-09-04T09:21:16.940Z,58.33
2018-09-04T09:23:45.646Z,56.30
2018-09-04T09:26:14.249Z,57.27
2018-09-04T09:28:42.849Z,57.77
2018-09-04T09:31:11.492Z,54.77
2018-09-04T09:33:40.706Z,58.10
2018-09-04T09:36:09.688Z,57.03
2018-09-04T09:38:38.291Z,51.67
2018-09-04T09:41:07.012Z,58.63
2018-09-04T09:43:35.645Z,54.87
2018-09-04T09:46:04.258Z,55.27
2018-09-04T09:48:38.135Z,57.13
2018-09-04T09:51:07.146Z,56.20
2018-09-04T09:53:36.079Z,55.30
2018-09-04T09:56:04.604Z,53.30
2018-09-04T09:58:33.242Z,56.83
2018-09-04T10:01:07.208Z,57.33
2018-09-04T10:03:41.128Z,53.30
2018-09-04T10:06:09.814Z,52.03
2018-09-04T10:08:38.514Z,51.00
2018-09-04T10:11:07.588Z,48.93
2018-09-04T10:13:36.095Z,47.13
2018-09-04T10:16:04.806Z,45.60
2018-09-04T10:18:33.427Z,47.13
2018-09-04T10:21:02.125Z,47.33
2018-09-04T10:23:30.872Z,47.57
2018-09-04T10:25:59.576Z,44.67
2018-09-04T10:28:28.212Z,45.57
2018-09-04T10:30:57.077Z,44.03
2018-09-04T10:33:25.725Z,45.60
2018-09-04T10:35:54.406Z,40.63
2018-09-04T10:38:25.390Z,40.53
2018-09-04T10:40:55.604Z,41.63
2018-09-04T10:43:28.411Z,37.93
2018-09-04T10:46:15.838Z,36.40
2018-09-04T10:48:44.501Z,40.47
2018-09-04T10:51:13.152Z,36.57
2018-09-04T10:53:41.803Z,39.37
2018-09-04T10:56:10.490Z,34.57
2018-09-04T10:58:39.237Z,32.83
2018-09-04T11:01:07.957Z,33.63
2018-09-04T11:03:37.861Z,30.83
2018-09-04T11:06:06.520Z,26.73
2018-09-04T11:08:35.204Z,25.20
2018-09-04T11:11:03.878Z,25.23
2018-09-04T11:13:32.548Z,28.33
2018-09-04T11:16:01.224Z,27.33
2018-09-04T11:18:30.133Z,27.67
2018-09-04T11:20:58.865Z,29.50
2018-09-04T11:23:27.552Z,27.17
2018-09-04T11:25:56.143Z,26.23
2018-09-04T11:28:24.787Z,25.70
2018-09-04T11:30:53.376Z,25.97
2018-09-04T11:33:22.148Z,23.90
2018-09-04T11:35:51.190Z,24.33
2018-09-04T11:38:19.884Z,24.07
2018-09-04T11:40:48.602Z,24.90
2018-09-04T11:43:17.239Z,26.43
2018-09-04T11:45:45.884Z,23.40
2018-09-04T11:48:17.416Z,25.80
2018-09-04T11:50:46.217Z,25.37
2018-09-04T11:53:14.876Z,25.47
2018-09-04T11:55:43.517Z,24.17
2018-09-04T11:58:12.183Z,26.03
2018-09-04T12:00:43.287Z,25.73
2018-09-04T12:03:13.460Z,24.90
2018-09-04T12:05:42.464Z,26.10
2018-09-04T12:08:11.150Z,24.67
2018-09-04T12:10:40.392Z,23.93
2018-09-04T12:13:09.168Z,23.17
2018-09-04T12:15:41.055Z,26.20
2018-09-04T12:18:10.753Z,26.20
2018-09-04T12:21:11.628Z,25.43
2018-09-04T12:23:40.991Z,25.87
2018-09-04T12:26:11.256Z,25.53
2018-09-04T12:28:39.939Z,24.27
2018-09-04T12:31:09.302Z,23.67
2018-09-04T12:33:37.994Z,23.17
2018-09-04T12:36:07.541Z,23.73
2018-09-04T12:38:37.886Z,23.70
2018-09-04T12:41:11.575Z,23.53
2018-09-04T12:43:40.383Z,24.20
2018-09-04T12:46:09.032Z,23.27
2018-09-04T12:48:37.766Z,27.23
2018-09-04T12:51:07.364Z,25.40
2018-09-04T12:53:35.985Z,26.60
2018-09-04T12:56:04.635Z,26.40
2018-09-04T12:58:33.247Z,28.43
2018-09-04T13:01:01.922Z,28.37
2018-09-04T13:03:30.655Z,26.77
2018-09-04T13:05:59.584Z,30.03
2018-09-04T13:08:30.632Z,25.93
2018-09-04T13:10:59.264Z,23.57
2018-09-04T13:13:28.203Z,22.03
2018-09-04T13:15:58.378Z,23.13
2018-09-04T13:18:27.948Z,20.47
2018-09-04T13:21:01.270Z,20.57
2018-09-04T13:23:30.348Z,22.73
2018-09-04T13:25:59.062Z,21.07
2018-09-04T13:28:28.310Z,19.77
2018-09-04T13:30:56.976Z,20.90
2018-09-04T13:33:25.667Z,20.63
2018-09-04T13:35:54.363Z,19.10
2018-09-04T13:38:23.057Z,20.37
2018-09-04T13:40:56.872Z,18.67
2018-09-04T13:43:25.581Z,18.40
2018-09-04T13:45:54.284Z,18.30
2018-09-04T13:48:28.000Z,18.93
2018-09-04T13:50:56.803Z,18.70
2018-09-04T13:53:25.559Z,18.33
2018-09-04T13:55:54.601Z,18.63
2018-09-04T13:58:23.342Z,18.40
2018-09-04T14:00:51.972Z,18.87
2018-09-04T14:03:20.711Z,18.13
2018-09-04T14:05:49.319Z,16.43
2018-09-04T14:08:18.021Z,14.57
2018-09-04T14:10:46.711Z,15.13
2018-09-04T14:13:15.676Z,14.87
2018-09-04T14:15:44.363Z,15.80
2018-09-04T14:18:13.020Z,15.50
2018-09-04T14:20:41.789Z,16.90
2018-09-04T14:23:10.463Z,15.13
2018-09-04T14:25:39.301Z,15.63
2018-09-04T14:28:07.782Z,16.03
2018-09-04T14:30:36.791Z,14.93
2018-09-04T14:33:05.532Z,14.27
2018-09-04T14:35:34.229Z,14.87
2018-09-04T14:38:02.949Z,15.33
2018-09-04T14:40:31.598Z,14.60
2018-09-04T14:43:00.442Z,16.03
2018-09-04T14:45:29.092Z,15.67
2018-09-04T14:47:57.770Z,15.93
2018-09-04T14:50:26.427Z,15.13
2018-09-04T14:52:55.099Z,15.23
2018-09-04T14:55:23.796Z,14.47
2018-09-04T14:57:52.571Z,15.60
2018-09-04T15:00:21.239Z,15.03
2018-09-04T15:02:49.917Z,14.73
2018-09-04T15:05:18.572Z,15.63
2018-09-04T15:07:47.416Z,15.97
2018-09-04T15:10:16.089Z,15.03
2018-09-04T15:12:44.917Z,15.40
2018-09-04T15:15:13.823Z,16.60
2018-09-04T15:17:42.765Z,14.17
2018-09-04T15:20:11.480Z,14.33
2018-09-04T15:22:40.171Z,14.13
2018-09-04T15:25:08.869Z,14.10
2018-09-04T15:27:37.595Z,13.67
2018-09-04T15:30:06.781Z,14.27
2018-09-04T15:32:35.600Z,14.57
2018-09-04T15:35:04.328Z,14.80
2018-09-04T15:37:32.971Z,14.13
2018-09-04T15:40:01.703Z,14.13
2018-09-04T15:42:30.422Z,13.43
2018-09-04T15:44:59.099Z,14.67
2018-09-04T15:47:28.054Z,14.50
2018-09-04T15:49:57.137Z,14.50
2018-09-04T15:52:25.770Z,14.70
2018-09-04T15:54:54.460Z,14.40
2018-09-04T15:57:23.072Z,14.13
2018-09-04T15:59:51.723Z,14.90
2018-09-04T16:02:20.412Z,14.87
2018-09-04T16:04:49.258Z,15.10
2018-09-04T16:07:17.915Z,14.80
2018-09-04T16:09:46.659Z,14.00
2018-09-04T16:12:15.380Z,15.50
2018-09-04T16:14:44.068Z,14.70
2018-09-04T16:17:13.025Z,14.63
2018-09-04T16:19:41.936Z,14.07
2018-09-04T16:22:10.831Z,13.47
2018-09-04T16:24:39.605Z,13.77
2018-09-04T16:27:08.387Z,13.23
2018-09-04T16:29:37.056Z,13.67
2018-09-04T16:32:05.906Z,13.47
2018-09-04T16:34:34.763Z,12.40
2018-09-04T16:37:03.503Z,13.57
2018-09-04T16:39:32.272Z,13.40
2018-09-04T16:42:00.909Z,12.67
2018-09-04T16:44:29.604Z,14.53
2018-09-04T16:46:58.338Z,13.80
2018-09-04T16:49:27.864Z,14.13
2018-09-04T16:51:58.307Z,13.60
2018-09-04T16:54:27.361Z,14.13
2018-09-04T16:56:56.125Z,14.27
2018-09-04T16:59:24.765Z,13.60
2018-09-04T17:01:55.820Z,13.67
2018-09-04T17:04:24.736Z,14.03
2018-09-04T17:06:53.443Z,14.47
2018-09-04T17:09:22.101Z,14.23
2018-09-04T17:11:51.138Z,14.00
2018-09-04T17:14:19.813Z,15.60
2018-09-04T17:16:48.459Z,15.13
2018-09-04T17:19:17.136Z,15.17
2018-09-04T17:21:45.827Z,14.20
2018-09-04T17:24:14.526Z,15.23
2018-09-04T17:26:43.169Z,15.33
2018-09-04T17:29:12.071Z,15.57
2018-09-04T17:31:40.906Z,14.43
2018-09-04T17:34:09.604Z,14.10
2018-09-04T17:36:38.272Z,14.87
2018-09-04T17:39:08.338Z,14.60
2018-09-04T17:41:37.072Z,13.90
2018-09-04T17:44:06.380Z,15.57
2018-09-04T17:46:35.625Z,14.73
2018-09-04T17:49:04.282Z,14.97
2018-09-04T17:51:33.014Z,13.77
2018-09-04T17:54:01.729Z,15.57
2018-09-04T17:56:30.708Z,15.27
2018-09-04T17:59:00.099Z,15.57
2018-09-04T18:01:29.393Z,14.63
2018-09-04T18:03:58.375Z,15.93
2018-09-04T18:06:27.012Z,15.63
2018-09-04T18:08:55.987Z,16.43
2018-09-04T18:11:24.737Z,17.00
2018-09-04T18:13:54.072Z,15.63
2018-09-04T18:16:22.995Z,16.17
2018-09-04T18:18:51.885Z,15.60
2018-09-04T18:21:20.535Z,16.13
2018-09-04T18:23:49.471Z,17.70
2018-09-04T18:26:18.189Z,16.97
2018-09-04T18:28:47.015Z,17.27
2018-09-04T18:31:15.877Z,17.40
2018-09-04T18:33:44.710Z,17.83
2018-09-04T18:36:13.560Z,17.30
2018-09-04T18:38:42.419Z,17.93
2018-09-04T18:41:11.165Z,18.17
2018-09-04T18:43:39.835Z,22.07
2018-09-04T18:46:08.935Z,25.47
2018-09-04T18:48:37.872Z,29.80
2018-09-04T18:51:06.580Z,37.33
2018-09-04T18:53:38.452Z,35.77
2018-09-04T18:56:07.204Z,37.33
2018-09-04T18:58:35.966Z,37.57
2018-09-04T19:01:04.693Z,40.33
2018-09-04T19:03:33.401Z,41.97
2018-09-04T19:06:13.641Z,41.33
2018-09-04T19:08:42.338Z,43.40
2018-09-04T19:11:11.050Z,46.80
2018-09-04T19:13:40.282Z,50.47
2018-09-04T19:16:08.965Z,48.40
2018-09-04T19:18:37.711Z,50.20
2018-09-04T19:21:06.883Z,51.43
2018-09-04T19:23:35.948Z,51.13
2018-09-04T19:26:04.901Z,51.00
2018-09-04T19:28:33.610Z,52.87
2018-09-04T19:31:02.681Z,51.57
2018-09-04T19:33:31.410Z,50.37
2018-09-04T19:36:01.443Z,50.53
2018-09-04T19:38:30.214Z,51.97
2018-09-04T19:40:58.922Z,50.03
2018-09-04T19:43:27.706Z,46.00
2018-09-04T19:45:56.726Z,43.67
2018-09-04T19:48:25.441Z,41.37
2018-09-04T19:50:54.198Z,40.63
2018-09-04T19:53:22.982Z,38.83
2018-09-04T19:55:52.615Z,37.60
2018-09-04T19:58:21.384Z,37.50
2018-09-04T20:00:50.395Z,35.50
2018-09-04T20:03:19.314Z,33.90
2018-09-04T20:05:48.003Z,35.03
2018-09-04T20:08:16.697Z,34.70
2018-09-04T20:10:45.321Z,33.40
2018-09-04T20:13:14.417Z,33.23
2018-09-04T20:15:43.035Z,32.73
2018-09-04T20:18:11.718Z,33.13
2018-09-04T20:20:40.446Z,31.37
2018-09-04T20:23:09.375Z,31.30
2018-09-04T20:25:38.069Z,30.67
2018-09-04T20:28:05.734Z,30.73
2018-09-04T20:30:34.404Z,30.33
2018-09-04T20:33:03.158Z,29.70
2018-09-04T20:35:31.849Z,30.33
2018-09-04T20:38:00.519Z,30.43
2018-09-04T20:40:29.179Z,30.07
2018-09-04T20:42:58.171Z,29.20
2018-09-04T20:45:26.823Z,28.37
2018-09-04T20:47:55.716Z,29.43
2018-09-04T20:50:25.041Z,28.47
2018-09-04T20:52:53.671Z,28.70
2018-09-04T20:55:22.275Z,29.27
2018-09-04T20:58:01.903Z,28.13
2018-09-04T21:00:41.788Z,28.77
2018-09-04T21:03:21.803Z,28.67
2018-09-04T21:06:03.821Z,28.10
2018-09-04T21:10:53.156Z,27.47
2018-09-04T21:13:21.866Z,27.17
2018-09-04T21:15:50.550Z,31.07
2018-09-04T21:18:19.226Z,29.90
2018-09-04T21:20:47.941Z,29.43
2018-09-04T21:23:16.771Z,31.27
2018-09-04T21:25:46.510Z,32.67
2018-09-04T21:28:15.155Z,35.00
2018-09-04T21:30:43.754Z,34.63
2018-09-04T21:33:12.808Z,33.70
2018-09-04T21:35:41.748Z,35.07
2018-09-04T21:38:12.768Z,33.93
2018-09-04T21:40:41.407Z,33.40
2018-09-04T21:43:10.024Z,34.83
2018-09-04T21:45:38.638Z,33.70
2018-09-04T21:48:10.097Z,35.73
2018-09-04T21:50:38.811Z,33.87
2018-09-04T21:53:07.671Z,35.97
2018-09-04T21:55:36.294Z,36.10
2018-09-04T21:58:04.964Z,36.73
2018-09-04T22:00:33.670Z,36.27
2018-09-04T22:03:02.292Z,39.23
2018-09-04T22:05:30.918Z,36.40
2018-09-04T22:07:59.565Z,36.83
2018-09-04T22:10:28.487Z,36.83
2018-09-04T22:12:57.292Z,34.60
2018-09-04T22:15:25.912Z,36.83
2018-09-04T22:17:54.658Z,35.60
2018-09-04T22:20:23.384Z,34.83
2018-09-04T22:22:52.000Z,36.37
2018-09-04T22:25:20.720Z,36.23
2018-09-04T22:27:49.380Z,36.50
2018-09-04T22:30:18.139Z,34.77
2018-09-04T22:32:46.775Z,34.70
2018-09-04T22:35:15.441Z,35.27
2018-09-04T22:37:44.068Z,37.27
2018-09-04T22:40:12.794Z,35.33
2018-09-04T22:42:41.851Z,35.53
2018-09-04T22:45:10.997Z,37.27
2018-09-04T22:47:41.113Z,35.53
2018-09-04T22:50:14.806Z,36.20
2018-09-04T22:52:43.745Z,34.43
2018-09-04T22:55:13.716Z,35.63
2018-09-04T22:57:43.320Z,35.07
2018-09-04T23:00:13.871Z,34.57
2018-09-04T23:02:42.673Z,35.77
2018-09-04T23:05:11.623Z,36.53
2018-09-04T23:07:40.334Z,36.57
2018-09-04T23:10:09.164Z,35.23
2018-09-04T23:12:37.912Z,34.87
2018-09-04T23:15:06.722Z,35.00
2018-09-04T23:17:35.585Z,34.27
2018-09-04T23:20:04.269Z,33.53
2018-09-04T23:22:32.916Z,33.80
2018-09-04T23:25:01.536Z,35.57
2018-09-04T23:27:30.434Z,35.17
2018-09-04T23:29:59.041Z,35.33
2018-09-04T23:32:27.977Z,35.67
2018-09-04T23:34:56.944Z,36.97
2018-09-04T23:37:25.559Z,35.53
2018-09-04T23:39:54.157Z,36.47
2018-09-04T23:42:22.777Z,37.10
2018-09-04T23:44:51.549Z,37.07
2018-09-04T23:47:20.206Z,35.23
2018-09-04T23:49:48.820Z,36.20
2018-09-04T23:52:17.481Z,35.23
2018-09-04T23:54:46.301Z,36.33
2018-09-04T23:57:14.987Z,36.53
2018-09-04T23:59:43.666Z,36.30
